sensor_id;sensor_type;location;lat;lon;timestamp;pressure;altitude;pressure_sealevel;temperature;humidity
4836;BME280;2432;51.226;6.904;2022-12-07T00:01:29;100989.75;;;4.43;100.00
4836;BME280;2432;51.226;6.904;2022-12-07T00:03:58;100989.75;;;4.43;100.00
4836;BME280;2432;51.226;6.904;2022-12-07T00:06:57;100983.69;;;4.42;100.00
4836;BME280;2432;51.226;6.904;2022-12-07T00:09:23;100989.75;;;4.41;100.00
4836;BME280;2432;51.226;6.904;2022-12-07T00:11:51;100982.81;;;4.40;100.00
4836;BME280;2432;51.226;6.904;2022-12-07T00:14:18;100988.00;;;4.40;100.00
4836;BME280;2432;51.226;6.904;2022-12-07T00:16:45;100994.09;;;4.44;100.00
4836;BME280;2432;51.226;6.904;2022-12-07T00:19:14;100989.75;;;4.41;100.00
4836;BME280;2432;51.226;6.904;2022-12-07T00:21:41;100995.78;;;4.42;100.00
4836;BME280;2432;51.226;6.904;2022-12-07T00:24:09;100986.28;;;4.42;100.00
4836;BME280;2432;51.226;6.904;2022-12-07T00:26:38;100990.66;;;4.45;100.00
4836;BME280;2432;51.226;6.904;2022-12-07T00:29:13;100995.84;;;4.45;100.00
4836;BME280;2432;51.226;6.904;2022-12-07T00:31:40;100988.06;;;4.46;100.00
4836;BME280;2432;51.226;6.904;2022-12-07T00:34:12;100988.06;;;4.45;100.00
4836;BME280;2432;51.226;6.904;2022-12-07T00:36:39;100995.84;;;4.45;100.00
4836;BME280;2432;51.226;6.904;2022-12-07T00:39:06;100995.84;;;4.45;100.00
4836;BME280;2432;51.226;6.904;2022-12-07T00:41:32;100993.28;;;4.48;100.00
4836;BME280;2432;51.226;6.904;2022-12-07T00:43:59;100985.50;;;4.48;100.00
4836;BME280;2432;51.226;6.904;2022-12-07T00:46:26;100985.50;;;4.46;100.00
4836;BME280;2432;51.226;6.904;2022-12-07T00:48:53;100988.94;;;4.47;100.00
4836;BME280;2432;51.226;6.904;2022-12-07T00:51:22;100976.84;;;4.46;100.00
4836;BME280;2432;51.226;6.904;2022-12-07T00:53:49;100975.13;;;4.48;100.00
4836;BME280;2432;51.226;6.904;2022-12-07T00:56:27;100976.88;;;4.50;100.00
4836;BME280;2432;51.226;6.904;2022-12-07T00:59:01;100974.28;;;4.49;100.00
4836;BME280;2432;51.226;6.904;2022-12-07T01:01:31;100976.00;;;4.50;100.00
4836;BME280;2432;51.226;6.904;2022-12-07T01:03:58;100983.78;;;4.51;100.00
4836;BME280;2432;51.226;6.904;2022-12-07T01:06:27;100971.69;;;4.49;100.00
4836;BME280;2432;51.226;6.904;2022-12-07T01:08:54;100972.53;;;4.49;100.00
4836;BME280;2432;51.226;6.904;2022-12-07T01:11:23;100969.09;;;4.50;100.00
4836;BME280;2432;51.226;6.904;2022-12-07T01:13:51;100968.22;;;4.50;100.00
4836;BME280;2432;51.226;6.904;2022-12-07T01:16:19;100963.91;;;4.49;100.00
4836;BME280;2432;51.226;6.904;2022-12-07T01:18:48;100973.41;;;4.50;100.00
4836;BME280;2432;51.226;6.904;2022-12-07T01:21:19;100969.09;;;4.50;100.00
4836;BME280;2432;51.226;6.904;2022-12-07T01:23:47;100976.00;;;4.51;100.00
4836;BME280;2432;51.226;6.904;2022-12-07T01:26:16;100976.00;;;4.51;100.00
4836;BME280;2432;51.226;6.904;2022-12-07T01:28:43;100969.97;;;4.49;100.00
4836;BME280;2432;51.226;6.904;2022-12-07T01:31:12;100972.56;;;4.51;100.00
4836;BME280;2432;51.226;6.904;2022-12-07T01:33:43;100967.38;;;4.49;100.00
4836;BME280;2432;51.226;6.904;2022-12-07T01:38:45;100959.59;;;4.51;100.00
4836;BME280;2432;51.226;6.904;2022-12-07T01:41:12;100973.41;;;4.50;100.00
4836;BME280;2432;51.226;6.904;2022-12-07T01:46:49;100970.81;;;4.50;100.00
4836;BME280;2432;51.226;6.904;2022-12-07T01:49:20;100972.53;;;4.49;100.00
4836;BME280;2432;51.226;6.904;2022-12-07T01:51:51;100969.09;;;4.50;100.00
4836;BME280;2432;51.226;6.904;2022-12-07T01:54:20;100972.53;;;4.49;100.00
4836;BME280;2432;51.226;6.904;2022-12-07T01:56:51;100964.78;;;4.49;100.00
4836;BME280;2432;51.226;6.904;2022-12-07T01:59:19;100962.16;;;4.48;100.00
4836;BME280;2432;51.226;6.904;2022-12-07T02:01:48;100957.84;;;4.48;100.00
4836;BME280;2432;51.226;6.904;2022-12-07T02:04:14;100963.03;;;4.48;100.00
4836;BME280;2432;51.226;6.904;2022-12-07T02:06:42;100960.44;;;4.48;100.00
4836;BME280;2432;51.226;6.904;2022-12-07T02:09:11;100959.56;;;4.48;100.00
4836;BME280;2432;51.226;6.904;2022-12-07T02:11:38;100952.66;;;4.47;100.00
4836;BME280;2432;51.226;6.904;2022-12-07T02:14:05;100961.31;;;4.47;100.00
4836;BME280;2432;51.226;6.904;2022-12-07T02:22:06;100949.22;;;4.48;100.00
4836;BME280;2432;51.226;6.904;2022-12-07T02:25:05;100947.47;;;4.47;100.00
4836;BME280;2432;51.226;6.904;2022-12-07T02:27:52;100954.38;;;4.46;100.00
4836;BME280;2432;51.226;6.904;2022-12-07T02:30:28;100949.19;;;4.45;100.00
4836;BME280;2432;51.226;6.904;2022-12-07T02:33:02;100950.06;;;4.45;100.00
4836;BME280;2432;51.226;6.904;2022-12-07T02:35:34;100958.69;;;4.44;100.00
4836;BME280;2432;51.226;6.904;2022-12-07T02:38:11;100954.34;;;4.43;100.00
4836;BME280;2432;51.226;6.904;2022-12-07T02:40:46;100959.50;;;4.42;100.00
4836;BME280;2432;51.226;6.904;2022-12-07T02:43:28;100959.50;;;4.40;100.00
4836;BME280;2432;51.226;6.904;2022-12-07T02:46:07;100961.22;;;4.40;100.00
4836;BME280;2432;51.226;6.904;2022-12-07T02:48:35;100962.06;;;4.39;100.00
4836;BME280;2432;51.226;6.904;2022-12-07T02:51:03;100960.34;;;4.39;100.00
4836;BME280;2432;51.226;6.904;2022-12-07T02:53:34;100959.47;;;4.39;100.00
4836;BME280;2432;51.226;6.904;2022-12-07T02:56:13;100956.88;;;4.37;100.00
4836;BME280;2432;51.226;6.904;2022-12-07T02:58:47;100962.94;;;4.38;100.00
4836;BME280;2432;51.226;6.904;2022-12-07T03:01:39;100958.63;;;4.38;100.00
4836;BME280;2432;51.226;6.904;2022-12-07T03:12:35;100959.47;;;4.37;100.00
4836;BME280;2432;51.226;6.904;2022-12-07T03:15:14;100956.00;;;4.37;100.00
4836;BME280;2432;51.226;6.904;2022-12-07T03:17:45;100956.00;;;4.37;100.00
4836;BME280;2432;51.226;6.904;2022-12-07T03:20:15;100961.19;;;4.37;100.00
4836;BME280;2432;51.226;6.904;2022-12-07T03:22:44;100960.34;;;4.36;100.00
4836;BME280;2432;51.226;6.904;2022-12-07T03:25:13;100964.66;;;4.36;100.00
4836;BME280;2432;51.226;6.904;2022-12-07T03:27:49;100957.69;;;4.33;100.00
4836;BME280;2432;51.226;6.904;2022-12-07T03:30:21;100956.81;;;4.31;100.00
4836;BME280;2432;51.226;6.904;2022-12-07T03:33:12;100955.09;;;4.32;100.00
4836;BME280;2432;51.226;6.904;2022-12-07T03:35:43;100951.63;;;4.30;100.00
4836;BME280;2432;51.226;6.904;2022-12-07T03:38:27;100953.34;;;4.31;100.00
4836;BME280;2432;51.226;6.904;2022-12-07T03:41:29;100953.34;;;4.29;100.00
4836;BME280;2432;51.226;6.904;2022-12-07T03:43:57;100947.28;;;4.27;100.00
4836;BME280;2432;51.226;6.904;2022-12-07T03:46:49;100949.88;;;4.27;100.00
4836;BME280;2432;51.226;6.904;2022-12-07T03:49:20;100957.66;;;4.27;100.00
4836;BME280;2432;51.226;6.904;2022-12-07T03:55:10;100952.41;;;4.25;100.00
4836;BME280;2432;51.226;6.904;2022-12-07T03:57:39;100955.91;;;4.26;100.00
4836;BME280;2432;51.226;6.904;2022-12-07T04:00:07;100956.72;;;4.23;100.00
4836;BME280;2432;51.226;6.904;2022-12-07T04:02:34;100952.41;;;4.22;100.00
4836;BME280;2432;51.226;6.904;2022-12-07T04:05:02;100953.25;;;4.23;100.00
4836;BME280;2432;51.226;6.904;2022-12-07T04:07:29;100958.44;;;4.21;100.00
4836;BME280;2432;51.226;6.904;2022-12-07T04:09:55;100960.16;;;4.21;100.00
4836;BME280;2432;51.226;6.904;2022-12-07T04:12:23;100948.91;;;4.19;100.00
4836;BME280;2432;51.226;6.904;2022-12-07T04:14:49;100950.63;;;4.18;100.00
4836;BME280;2432;51.226;6.904;2022-12-07T04:17:16;100948.91;;;4.17;100.00
4836;BME280;2432;51.226;6.904;2022-12-07T04:19:42;100955.81;;;4.18;100.00
4836;BME280;2432;51.226;6.904;2022-12-07T04:22:09;100960.13;;;4.18;100.00
4836;BME280;2432;51.226;6.904;2022-12-07T04:24:35;100957.56;;;4.19;100.00
4836;BME280;2432;51.226;6.904;2022-12-07T04:27:02;100948.03;;;4.18;100.00
4836;BME280;2432;51.226;6.904;2022-12-07T04:29:29;100948.91;;;4.17;100.00
4836;BME280;2432;51.226;6.904;2022-12-07T04:31:55;100945.41;;;4.15;100.00
4836;BME280;2432;51.226;6.904;2022-12-07T04:34:22;100942.78;;;4.12;100.00
4836;BME280;2432;51.226;6.904;2022-12-07T04:36:48;100941.94;;;4.13;100.00
4836;BME280;2432;51.226;6.904;2022-12-07T04:39:22;100936.75;;;4.15;100.00
4836;BME280;2432;51.226;6.904;2022-12-07T04:41:49;100936.75;;;4.15;100.00
4836;BME280;2432;51.226;6.904;2022-12-07T04:44:16;100941.06;;;4.14;100.00
4836;BME280;2432;51.226;6.904;2022-12-07T04:46:43;100949.69;;;4.13;100.00
4836;BME280;2432;51.226;6.904;2022-12-07T04:49:11;100938.47;;;4.14;100.00
4836;BME280;2432;51.226;6.904;2022-12-07T04:51:38;100941.91;;;4.12;100.00
4836;BME280;2432;51.226;6.904;2022-12-07T04:54:05;100935.00;;;4.12;100.00
4836;BME280;2432;51.226;6.904;2022-12-07T04:56:32;100928.09;;;4.11;100.00
4836;BME280;2432;51.226;6.904;2022-12-07T04:58:59;100931.53;;;4.10;100.00
4836;BME280;2432;51.226;6.904;2022-12-07T05:01:25;100928.97;;;4.10;100.00
4836;BME280;2432;51.226;6.904;2022-12-07T05:03:51;100930.69;;;4.10;100.00
4836;BME280;2432;51.226;6.904;2022-12-07T05:06:18;100940.13;;;4.06;100.00
4836;BME280;2432;51.226;6.904;2022-12-07T05:08:45;100943.59;;;4.08;100.00
4836;BME280;2432;51.226;6.904;2022-12-07T05:11:12;100940.97;;;4.04;100.00
4836;BME280;2432;51.226;6.904;2022-12-07T05:14:00;100940.09;;;4.03;100.00
4836;BME280;2432;51.226;6.904;2022-12-07T05:16:27;100947.84;;;4.02;100.00
4836;BME280;2432;51.226;6.904;2022-12-07T05:18:54;100942.69;;;4.02;100.00
4836;BME280;2432;51.226;6.904;2022-12-07T05:21:20;100951.31;;;4.01;100.00
4836;BME280;2432;51.226;6.904;2022-12-07T05:23:47;100948.72;;;4.01;100.00
4836;BME280;2432;51.226;6.904;2022-12-07T05:26:14;100949.53;;;4.00;100.00
4836;BME280;2432;51.226;6.904;2022-12-07T05:28:40;100953.03;;;4.00;100.00
4836;BME280;2432;51.226;6.904;2022-12-07T05:31:07;100951.25;;;3.99;100.00
4836;BME280;2432;51.226;6.904;2022-12-07T05:33:33;100948.66;;;3.97;100.00
4836;BME280;2432;51.226;6.904;2022-12-07T05:36:00;100952.97;;;3.98;100.00
4836;BME280;2432;51.226;6.904;2022-12-07T05:38:32;100952.97;;;3.97;100.00
4836;BME280;2432;51.226;6.904;2022-12-07T05:41:04;100951.22;;;3.96;100.00
4836;BME280;2432;51.226;6.904;2022-12-07T05:43:32;100945.16;;;3.94;100.00
4836;BME280;2432;51.226;6.904;2022-12-07T05:45:59;100948.63;;;3.93;100.00
4836;BME280;2432;51.226;6.904;2022-12-07T05:48:25;100939.97;;;3.91;100.00
4836;BME280;2432;51.226;6.904;2022-12-07T05:50:52;100940.00;;;3.94;100.00
4836;BME280;2432;51.226;6.904;2022-12-07T05:53:19;100939.06;;;3.90;100.00
4836;BME280;2432;51.226;6.904;2022-12-07T05:55:48;100943.38;;;3.88;100.00
4836;BME280;2432;51.226;6.904;2022-12-07T05:58:15;100937.31;;;3.89;100.00
4836;BME280;2432;51.226;6.904;2022-12-07T06:01:00;100937.31;;;3.89;100.00
4836;BME280;2432;51.226;6.904;2022-12-07T06:03:26;100943.38;;;3.88;100.00
4836;BME280;2432;51.226;6.904;2022-12-07T06:05:53;100946.81;;;3.89;100.00
4836;BME280;2432;51.226;6.904;2022-12-07T06:08:20;100940.78;;;3.90;100.00
4836;BME280;2432;51.226;6.904;2022-12-07T06:10:47;100948.53;;;3.88;100.00
4836;BME280;2432;51.226;6.904;2022-12-07T06:13:34;100941.63;;;3.87;100.00
4836;BME280;2432;51.226;6.904;2022-12-07T06:16:00;100933.84;;;3.87;100.00
4836;BME280;2432;51.226;6.904;2022-12-07T06:18:26;100942.47;;;3.86;100.00
4836;BME280;2432;51.226;6.904;2022-12-07T06:20:53;100939.03;;;3.87;100.00
4836;BME280;2432;51.226;6.904;2022-12-07T06:23:19;100947.66;;;3.86;100.00
4836;BME280;2432;51.226;6.904;2022-12-07T06:25:46;100938.16;;;3.85;100.00
4836;BME280;2432;51.226;6.904;2022-12-07T06:28:12;100943.34;;;3.87;100.00
4836;BME280;2432;51.226;6.904;2022-12-07T06:30:39;100947.69;;;3.88;100.00
4836;BME280;2432;51.226;6.904;2022-12-07T06:33:05;100945.09;;;3.88;100.00
4836;BME280;2432;51.226;6.904;2022-12-07T06:35:33;100946.81;;;3.89;100.00
4836;BME280;2432;51.226;6.904;2022-12-07T06:37:59;100953.72;;;3.87;100.00
4836;BME280;2432;51.226;6.904;2022-12-07T06:40:26;100949.41;;;3.87;100.00
4836;BME280;2432;51.226;6.904;2022-12-07T06:42:52;100946.78;;;3.86;100.00
4836;BME280;2432;51.226;6.904;2022-12-07T06:45:19;100949.41;;;3.87;100.00
4836;BME280;2432;51.226;6.904;2022-12-07T06:47:45;100943.34;;;3.87;100.00
4836;BME280;2432;51.226;6.904;2022-12-07T06:50:12;100945.94;;;3.88;100.00
4836;BME280;2432;51.226;6.904;2022-12-07T06:52:38;100952.84;;;3.88;100.00
4836;BME280;2432;51.226;6.904;2022-12-07T06:55:08;100957.19;;;3.89;100.00
4836;BME280;2432;51.226;6.904;2022-12-07T06:57:35;100956.31;;;3.88;100.00
4836;BME280;2432;51.226;6.904;2022-12-07T07:00:03;100955.47;;;3.89;100.00
4836;BME280;2432;51.226;6.904;2022-12-07T07:02:30;100952.00;;;3.89;100.00
4836;BME280;2432;51.226;6.904;2022-12-07T07:04:56;100951.13;;;3.88;100.00
4836;BME280;2432;51.226;6.904;2022-12-07T07:07:23;100948.53;;;3.88;100.00
4836;BME280;2432;51.226;6.904;2022-12-07T07:09:50;100952.84;;;3.88;100.00
4836;BME280;2432;51.226;6.904;2022-12-07T07:12:16;100952.84;;;3.88;100.00
4836;BME280;2432;51.226;6.904;2022-12-07T07:14:42;100950.25;;;3.88;100.00
4836;BME280;2432;51.226;6.904;2022-12-07T07:17:09;100951.97;;;3.86;100.00
4836;BME280;2432;51.226;6.904;2022-12-07T07:19:36;100952.84;;;3.86;100.00
4836;BME280;2432;51.226;6.904;2022-12-07T07:22:03;100951.97;;;3.86;100.00
4836;BME280;2432;51.226;6.904;2022-12-07T07:24:30;100953.69;;;3.85;100.00
4836;BME280;2432;51.226;6.904;2022-12-07T07:26:56;100956.28;;;3.84;100.00
4836;BME280;2432;51.226;6.904;2022-12-07T07:29:23;100956.28;;;3.84;100.00
4836;BME280;2432;51.226;6.904;2022-12-07T07:31:49;100951.97;;;3.84;100.00
4836;BME280;2432;51.226;6.904;2022-12-07T07:34:16;100963.19;;;3.86;100.00
4836;BME280;2432;51.226;6.904;2022-12-07T07:36:42;100958.88;;;3.85;100.00
4836;BME280;2432;51.226;6.904;2022-12-07T07:39:10;100965.81;;;3.88;100.00
4836;BME280;2432;51.226;6.904;2022-12-07T07:41:38;100964.91;;;3.86;100.00
4836;BME280;2432;51.226;6.904;2022-12-07T07:44:05;100964.06;;;3.87;100.00
4836;BME280;2432;51.226;6.904;2022-12-07T07:46:31;100963.22;;;3.89;100.00
4836;BME280;2432;51.226;6.904;2022-12-07T07:48:59;100963.22;;;3.88;100.00
4836;BME280;2432;51.226;6.904;2022-12-07T07:51:25;100968.41;;;3.89;100.00
4836;BME280;2432;51.226;6.904;2022-12-07T07:53:52;100964.06;;;3.87;100.00
4836;BME280;2432;51.226;6.904;2022-12-07T07:56:18;100964.06;;;3.87;100.00
4836;BME280;2432;51.226;6.904;2022-12-07T07:58:45;100963.19;;;3.86;100.00
4836;BME280;2432;51.226;6.904;2022-12-07T08:01:12;100970.09;;;3.86;100.00
4836;BME280;2432;51.226;6.904;2022-12-07T08:03:39;100964.91;;;3.86;100.00
4836;BME280;2432;51.226;6.904;2022-12-07T08:06:06;100969.22;;;3.85;100.00
4836;BME280;2432;51.226;6.904;2022-12-07T08:08:33;100976.13;;;3.85;100.00
4836;BME280;2432;51.226;6.904;2022-12-07T08:10:59;100978.66;;;3.82;100.00
4836;BME280;2432;51.226;6.904;2022-12-07T08:13:27;100979.50;;;3.81;100.00
4836;BME280;2432;51.226;6.904;2022-12-07T08:15:57;100977.78;;;3.80;100.00
4836;BME280;2432;51.226;6.904;2022-12-07T08:18:24;100984.69;;;3.81;100.00
4836;BME280;2432;51.226;6.904;2022-12-07T08:20:50;100982.97;;;3.80;100.00
4836;BME280;2432;51.226;6.904;2022-12-07T08:23:17;100989.88;;;3.81;100.00
4836;BME280;2432;51.226;6.904;2022-12-07T08:25:43;100985.53;;;3.78;100.00
4836;BME280;2432;51.226;6.904;2022-12-07T08:28:10;100978.66;;;3.80;100.00
4836;BME280;2432;51.226;6.904;2022-12-07T08:31:03;100989.06;;;3.83;100.00
4836;BME280;2432;51.226;6.904;2022-12-07T08:33:31;100991.69;;;3.86;100.00
4836;BME280;2432;51.226;6.904;2022-12-07T08:36:06;100996.00;;;3.87;100.00
4836;BME280;2432;51.226;6.904;2022-12-07T08:38:37;100991.69;;;3.88;100.00
4836;BME280;2432;51.226;6.904;2022-12-07T08:41:04;100989.13;;;3.89;100.00
4836;BME280;2432;51.226;6.904;2022-12-07T08:43:31;100983.94;;;3.88;100.00
4836;BME280;2432;51.226;6.904;2022-12-07T08:46:11;100984.78;;;3.87;100.00
4836;BME280;2432;51.226;6.904;2022-12-07T08:48:44;100981.31;;;3.86;100.00
4836;BME280;2432;51.226;6.904;2022-12-07T08:51:13;100979.59;;;3.87;100.00
4836;BME280;2432;51.226;6.904;2022-12-07T08:53:40;100981.34;;;3.88;100.00
4836;BME280;2432;51.226;6.904;2022-12-07T08:56:08;100980.47;;;3.89;100.00
4836;BME280;2432;51.226;6.904;2022-12-07T08:58:35;100983.09;;;3.90;100.00
4836;BME280;2432;51.226;6.904;2022-12-07T09:01:04;100984.00;;;3.91;100.00
4836;BME280;2432;51.226;6.904;2022-12-07T09:03:31;100982.28;;;3.93;100.00
4836;BME280;2432;51.226;6.904;2022-12-07T09:05:58;100977.13;;;3.94;100.00
4836;BME280;2432;51.226;6.904;2022-12-07T09:08:36;100977.97;;;3.95;100.00
4836;BME280;2432;51.226;6.904;2022-12-07T09:11:04;100982.31;;;3.96;100.00
4836;BME280;2432;51.226;6.904;2022-12-07T09:13:31;100974.53;;;3.96;100.00
4836;BME280;2432;51.226;6.904;2022-12-07T09:15:57;100976.28;;;3.97;100.00
4836;BME280;2432;51.226;6.904;2022-12-07T09:18:24;100979.75;;;3.99;100.00
4836;BME280;2432;51.226;6.904;2022-12-07T09:20:51;100983.25;;;4.01;100.00
4836;BME280;2432;51.226;6.904;2022-12-07T09:23:18;100983.25;;;4.03;100.00
4836;BME280;2432;51.226;6.904;2022-12-07T09:25:44;100978.97;;;4.08;100.00
4836;BME280;2432;51.226;6.904;2022-12-07T09:28:11;100977.31;;;4.10;100.00
4836;BME280;2432;51.226;6.904;2022-12-07T09:30:37;100984.25;;;4.14;100.00
4836;BME280;2432;51.226;6.904;2022-12-07T09:33:24;100984.28;;;4.17;100.00
4836;BME280;2432;51.226;6.904;2022-12-07T09:35:52;100980.00;;;4.19;100.00
4836;BME280;2432;51.226;6.904;2022-12-07T09:38:19;100987.81;;;4.22;100.00
4836;BME280;2432;51.226;6.904;2022-12-07T09:40:46;100985.22;;;4.23;100.00
4836;BME280;2432;51.226;6.904;2022-12-07T09:43:15;100987.88;;;4.28;100.00
4836;BME280;2432;51.226;6.904;2022-12-07T09:45:43;100985.31;;;4.30;100.00
4836;BME280;2432;51.226;6.904;2022-12-07T09:48:17;100981.00;;;4.32;100.00
4836;BME280;2432;51.226;6.904;2022-12-07T09:50:46;100983.66;;;4.38;100.00
4836;BME280;2432;51.226;6.904;2022-12-07T09:53:23;100977.66;;;4.42;100.00
4836;BME280;2432;51.226;6.904;2022-12-07T09:55:51;100972.53;;;4.48;100.00
4836;BME280;2432;51.226;6.904;2022-12-07T09:58:24;100981.19;;;4.51;100.00
4836;BME280;2432;51.226;6.904;2022-12-07T10:00:58;100973.41;;;4.51;100.00
4836;BME280;2432;51.226;6.904;2022-12-07T10:03:28;100974.34;;;4.55;100.00
4836;BME280;2432;51.226;6.904;2022-12-07T10:05:56;100969.16;;;4.57;100.00
4836;BME280;2432;51.226;6.904;2022-12-07T10:08:24;100969.16;;;4.57;100.00
4836;BME280;2432;51.226;6.904;2022-12-07T10:10:54;100970.91;;;4.58;100.00
4836;BME280;2432;51.226;6.904;2022-12-07T10:13:35;100968.31;;;4.59;100.00
4836;BME280;2432;51.226;6.904;2022-12-07T10:16:02;100965.78;;;4.62;100.00
4836;BME280;2432;51.226;6.904;2022-12-07T10:18:40;100956.28;;;4.63;100.00
4836;BME280;2432;51.226;6.904;2022-12-07T10:23:35;100958.88;;;4.67;100.00
4836;BME280;2432;51.226;6.904;2022-12-07T10:26:27;100946.84;;;4.72;100.00
4836;BME280;2432;51.226;6.904;2022-12-07T10:28:58;100954.63;;;4.72;100.00
4836;BME280;2432;51.226;6.904;2022-12-07T10:31:26;100950.31;;;4.76;100.00
4836;BME280;2432;51.226;6.904;2022-12-07T10:34:00;100952.91;;;4.74;100.00
4836;BME280;2432;51.226;6.904;2022-12-07T10:36:35;100947.72;;;4.74;100.00
4836;BME280;2432;51.226;6.904;2022-12-07T10:39:14;100940.81;;;4.73;100.00
4836;BME280;2432;51.226;6.904;2022-12-07T10:44:22;100952.06;;;4.77;100.00
4836;BME280;2432;51.226;6.904;2022-12-07T10:49:39;100945.16;;;4.77;100.00
4836;BME280;2432;51.226;6.904;2022-12-07T10:52:18;100933.09;;;4.81;100.00
4836;BME280;2432;51.226;6.904;2022-12-07T11:12:47;100907.97;;;4.75;100.00
4836;BME280;2432;51.226;6.904;2022-12-07T11:15:22;100901.09;;;4.80;100.00
4836;BME280;2432;51.226;6.904;2022-12-07T11:18:03;100912.34;;;4.82;100.00
4836;BME280;2432;51.226;6.904;2022-12-07T11:23:49;100897.69;;;4.88;100.00
4836;BME280;2432;51.226;6.904;2022-12-07T11:36:54;100898.69;;;5.08;100.00
4836;BME280;2432;51.226;6.904;2022-12-07T11:39:26;100887.47;;;5.12;100.00
4836;BME280;2432;51.226;6.904;2022-12-07T11:45:02;100883.19;;;5.14;100.00
4836;BME280;2432;51.226;6.904;2022-12-07T11:47:54;100879.72;;;5.20;100.00
4836;BME280;2432;51.226;6.904;2022-12-07T11:50:47;100867.66;;;5.25;100.00
4836;BME280;2432;51.226;6.904;2022-12-07T11:56:02;100878.09;;;5.35;100.00
4836;BME280;2432;51.226;6.904;2022-12-07T12:06:41;100864.25;;;5.33;100.00
4836;BME280;2432;51.226;6.904;2022-12-07T12:23:13;100853.03;;;5.41;100.00
4836;BME280;2432;51.226;6.904;2022-12-07T12:25:54;100847.84;;;5.41;100.00
4836;BME280;2432;51.226;6.904;2022-12-07T12:28:50;100845.25;;;5.47;100.00
4836;BME280;2432;51.226;6.904;2022-12-07T12:33:53;100840.09;;;5.48;100.00
4836;BME280;2432;51.226;6.904;2022-12-07T12:39:08;100834.03;;;5.48;100.00
4836;BME280;2432;51.226;6.904;2022-12-07T12:51:44;100823.66;;;5.51;100.00
4836;BME280;2432;51.226;6.904;2022-12-07T12:54:15;100818.47;;;5.52;100.00
4836;BME280;2432;51.226;6.904;2022-12-07T12:57:09;100815.88;;;5.52;100.00
4836;BME280;2432;51.226;6.904;2022-12-07T13:02:27;100821.91;;;5.51;100.00
4836;BME280;2432;51.226;6.904;2022-12-07T13:05:14;100815.00;;;5.49;100.00
4836;BME280;2432;51.226;6.904;2022-12-07T13:15:54;100809.78;;;5.43;100.00
4836;BME280;2432;51.226;6.904;2022-12-07T13:18:41;100808.03;;;5.42;100.00
4836;BME280;2432;51.226;6.904;2022-12-07T13:26:23;100801.13;;;5.44;100.00
4836;BME280;2432;51.226;6.904;2022-12-07T13:29:18;100805.44;;;5.45;100.00
4836;BME280;2432;51.226;6.904;2022-12-07T13:31:54;100801.97;;;5.43;100.00
4836;BME280;2432;51.226;6.904;2022-12-07T13:34:29;100799.38;;;5.43;100.00
4836;BME280;2432;51.226;6.904;2022-12-07T13:36:56;100801.97;;;5.41;100.00
4836;BME280;2432;51.226;6.904;2022-12-07T13:39:24;100800.25;;;5.42;100.00
4836;BME280;2432;51.226;6.904;2022-12-07T13:41:57;100795.94;;;5.42;100.00
4836;BME280;2432;51.226;6.904;2022-12-07T13:44:26;100787.28;;;5.43;100.00
4836;BME280;2432;51.226;6.904;2022-12-07T13:46:55;100794.19;;;5.46;100.00
4836;BME280;2432;51.226;6.904;2022-12-07T13:49:26;100782.09;;;5.48;100.00
4836;BME280;2432;51.226;6.904;2022-12-07T13:51:53;100781.22;;;5.46;100.00
4836;BME280;2432;51.226;6.904;2022-12-07T13:54:21;100779.47;;;5.46;100.00
4836;BME280;2432;51.226;6.904;2022-12-07T13:56:52;100776.88;;;5.46;100.00
4836;BME280;2432;51.226;6.904;2022-12-07T13:59:24;100775.16;;;5.47;100.00
4836;BME280;2432;51.226;6.904;2022-12-07T14:01:52;100777.78;;;5.50;100.00
4836;BME280;2432;51.226;6.904;2022-12-07T14:06:55;100764.78;;;5.47;100.00
4836;BME280;2432;51.226;6.904;2022-12-07T14:09:24;100757.84;;;5.44;100.00
4836;BME280;2432;51.226;6.904;2022-12-07T14:11:56;100757.84;;;5.46;100.00
4836;BME280;2432;51.226;6.904;2022-12-07T14:14:29;100762.19;;;5.44;100.00
4836;BME280;2432;51.226;6.904;2022-12-07T14:17:19;100761.31;;;5.43;100.00
4836;BME280;2432;51.226;6.904;2022-12-07T14:19:57;100752.66;;;5.39;100.00
4836;BME280;2432;51.226;6.904;2022-12-07T14:25:17;100749.16;;;5.36;100.00
4836;BME280;2432;51.226;6.904;2022-12-07T14:30:19;100748.31;;;5.31;100.00
4836;BME280;2432;51.226;6.904;2022-12-07T14:32:54;100762.16;;;5.31;100.00
4836;BME280;2432;51.226;6.904;2022-12-07T14:35:21;100748.31;;;5.31;100.00
4836;BME280;2432;51.226;6.904;2022-12-07T14:37:49;100743.94;;;5.28;100.00
4836;BME280;2432;51.226;6.904;2022-12-07T14:40:24;100740.50;;;5.26;100.00
4836;BME280;2432;51.226;6.904;2022-12-07T14:42:57;100740.50;;;5.26;100.00
4836;BME280;2432;51.226;6.904;2022-12-07T14:45:26;100735.31;;;5.23;100.00
4836;BME280;2432;51.226;6.904;2022-12-07T14:47:53;100737.03;;;5.21;100.00
4836;BME280;2432;51.226;6.904;2022-12-07T14:50:50;100732.72;;;5.22;100.00
4836;BME280;2432;51.226;6.904;2022-12-07T14:53:41;100736.16;;;5.22;100.00
4836;BME280;2432;51.226;6.904;2022-12-07T14:56:09;100735.31;;;5.23;100.00
4836;BME280;2432;51.226;6.904;2022-12-07T14:58:36;100733.56;;;5.22;100.00
4836;BME280;2432;51.226;6.904;2022-12-07T15:01:03;100727.47;;;5.20;100.00
4836;BME280;2432;51.226;6.904;2022-12-07T15:03:29;100724.03;;;5.17;100.00
4836;BME280;2432;51.226;6.904;2022-12-07T15:05:57;100724.88;;;5.16;100.00
4836;BME280;2432;51.226;6.904;2022-12-07T15:08:23;100724.03;;;5.15;100.00
4836;BME280;2432;51.226;6.904;2022-12-07T15:10:50;100719.66;;;5.11;100.00
4836;BME280;2432;51.226;6.904;2022-12-07T15:13:16;100717.97;;;5.13;100.00
4836;BME280;2432;51.226;6.904;2022-12-07T15:16:01;100719.66;;;5.08;100.00
4836;BME280;2432;51.226;6.904;2022-12-07T15:18:28;100719.66;;;5.08;100.00
4836;BME280;2432;51.226;6.904;2022-12-07T15:20:54;100707.56;;;5.04;100.00
4836;BME280;2432;51.226;6.904;2022-12-07T15:23:21;100711.00;;;5.01;100.00
4836;BME280;2432;51.226;6.904;2022-12-07T15:25:48;100702.34;;;4.98;100.00
4836;BME280;2432;51.226;6.904;2022-12-07T15:28:15;100707.53;;;4.96;100.00
4836;BME280;2432;51.226;6.904;2022-12-07T15:30:43;100715.28;;;4.95;100.00
4836;BME280;2432;51.226;6.904;2022-12-07T15:33:11;100710.09;;;4.95;100.00
4836;BME280;2432;51.226;6.904;2022-12-07T15:35:39;100715.28;;;4.95;100.00
4836;BME280;2432;51.226;6.904;2022-12-07T15:38:06;100711.00;;;4.97;100.00